Weather at Beteta Airfield

Public forecast

Using degrees Celsius for public forecast. Weather courtesy of forecast.io.

Closest aviation weather report (METAR) to Beteta Airfield

Closest report is Teruel Airport, 40.1 nm (74.2 km) ESE. Retrieved 2021/06/15 05:30 UTC (28 minutes ago):

LETL 150530Z AUTO 00000KT CAVOK 15/12 Q1023

Closest aviation forecast (TAF) to Beteta Airfield

Closest forecast is Teruel Airport, 40.1 nm (74.2 km) ESE. Retrieved 2021-06-15 00:00 UTC (6 hours ago):

TAF LETL 142300Z 1500/1524 VRB04KT CAVOK TX31/1514Z TN15/1506Z BECMG 1510/1512 16013KT PROB30 TEMPO 1510/1517 19015G25KT TS FEW070CB BECMG 1521/1523 VRB04KT